Time;durP1;ratioP1;P1;durP2;ratioP2;P2;SDS_P1;SDS_P2;PMS_P1;PMS_P2;Temp;Humidity;BMP_temperature;BMP_pressure;BME280_temperature;BME280_humidity;BME280_pressure;Samples;Min_cycle;Max_cycle;Signal;HPM_P1;HPM_P2
2021/11/03 00:00:14;;;;;;;38.70;22.50;;;;;;;7.50;67.27;97807.75;113557;1193;98931;-71
2021/11/03 00:03:05;;;;;;;36.40;21.00;;;;;;;7.49;67.37;97808.43;113504;1192;98975;-71
2021/11/03 00:05:34;;;;;;;40.00;23.40;;;;;;;7.49;67.48;97805.84;113516;1193;112536;-73
2021/11/03 00:08:01;;;;;;;38.00;21.80;;;;;;;7.49;67.32;97804.42;113419;1192;99751;-72
2021/11/03 00:10:29;;;;;;;41.20;22.10;;;;;;;7.49;67.50;97800.38;113399;1193;107154;-75
2021/11/03 00:12:57;;;;;;;39.50;21.80;;;;;;;7.49;67.54;97801.39;113272;1193;98902;-73
2021/11/03 00:15:25;;;;;;;40.10;22.50;;;;;;;7.52;67.42;97807.35;113353;1193;98967;-75
2021/11/03 00:17:53;;;;;;;38.70;23.20;;;;;;;7.53;67.47;97811.88;113427;1193;112978;-73
2021/11/03 00:20:21;;;;;;;38.30;22.00;;;;;;;7.54;67.43;97819.84;113392;1193;98966;-72
2021/11/03 00:22:49;;;;;;;36.50;21.70;;;;;;;7.55;67.49;97823.11;113316;1193;107523;-73
2021/11/03 00:25:17;;;;;;;38.30;22.40;;;;;;;7.55;67.40;97818.20;113549;1192;96399;-73
2021/11/03 00:27:44;;;;;;;39.60;22.60;;;;;;;7.56;67.61;97824.12;113423;1193;99466;-74
2021/11/03 00:30:12;;;;;;;41.90;23.90;;;;;;;7.55;67.37;97830.36;113517;1193;112518;-73
2021/11/03 00:32:40;;;;;;;37.80;22.20;;;;;;;7.55;67.71;97832.66;113347;1193;96303;-73
2021/11/03 00:35:08;;;;;;;38.60;22.00;;;;;;;7.53;67.57;97839.86;113392;1193;107554;-74
2021/11/03 00:37:37;;;;;;;36.90;21.10;;;;;;;7.52;67.47;97841.54;113415;1192;99011;-72
2021/11/03 00:40:07;;;;;;;39.30;22.60;;;;;;;7.50;67.78;97845.13;113408;1193;99038;-72
2021/11/03 00:42:36;;;;;;;37.90;22.30;;;;;;;7.47;67.50;97851.11;113349;1193;112197;-74
2021/11/03 00:45:07;;;;;;;37.60;22.50;;;;;;;7.46;67.83;97857.39;113403;1193;99047;-73
2021/11/03 00:47:36;;;;;;;38.30;22.50;;;;;;;7.45;67.67;97863.42;113348;1195;106639;-72
2021/11/03 00:50:06;;;;;;;35.30;21.40;;;;;;;7.45;67.79;97876.48;113561;1192;99007;-73
2021/11/03 00:52:34;;;;;;;36.00;21.40;;;;;;;7.45;67.83;97881.59;113421;1193;98922;-74
2021/11/03 00:55:04;;;;;;;37.40;21.70;;;;;;;7.45;67.84;97880.36;113311;1193;112530;-74
2021/11/03 00:57:32;;;;;;;38.20;22.10;;;;;;;7.44;67.79;97881.32;113357;1193;98885;-73
2021/11/03 01:00:00;;;;;;;39.30;24.10;;;;;;;7.44;67.80;97886.76;113486;1193;107516;-73
2021/11/03 01:02:27;;;;;;;38.50;20.80;;;;;;;7.45;68.02;97888.13;113335;1193;98940;-74
2021/11/03 01:04:56;;;;;;;39.20;23.70;;;;;;;7.47;67.97;97892.04;113542;1193;96452;-73
2021/11/03 01:07:24;;;;;;;39.40;23.30;;;;;;;7.49;68.10;97891.56;113479;1192;112706;-71
2021/11/03 01:09:52;;;;;;;41.80;23.20;;;;;;;7.50;67.91;97888.13;114386;1192;97640;-74
2021/11/03 01:12:20;;;;;;;38.00;22.90;;;;;;;7.51;68.03;97888.54;113490;1193;107623;-73
2021/11/03 01:14:48;;;;;;;36.60;22.60;;;;;;;7.54;67.97;97891.70;113531;1193;98973;-73
2021/11/03 01:17:16;;;;;;;41.20;23.60;;;;;;;7.54;67.85;97887.05;113506;1193;99001;-73
2021/11/03 01:19:44;;;;;;;38.20;22.70;;;;;;;7.56;68.10;97889.91;113511;1193;113512;-72
2021/11/03 01:22:11;;;;;;;36.70;23.70;;;;;;;7.58;68.00;97885.51;113491;1192;99474;-72
2021/11/03 01:24:39;;;;;;;37.80;22.10;;;;;;;7.61;68.14;97886.38;113433;1193;107468;-73
2021/11/03 01:27:07;;;;;;;37.90;22.90;;;;;;;7.64;68.08;97882.29;113702;1192;96463;-72
2021/11/03 01:29:35;;;;;;;41.30;24.20;;;;;;;7.65;68.07;97882.34;113899;1192;98973;-71
2021/11/03 01:32:03;;;;;;;40.20;24.60;;;;;;;7.66;68.12;97884.88;113861;1193;112394;-71
2021/11/03 01:34:31;;;;;;;41.20;23.90;;;;;;;7.67;68.02;97887.46;113904;1193;98987;-72
2021/11/03 01:36:59;;;;;;;39.60;24.20;;;;;;;7.68;68.14;97888.95;113894;1193;107356;-72
2021/11/03 01:39:26;;;;;;;41.50;25.10;;;;;;;7.68;68.12;97895.13;113876;1192;98977;-73
2021/11/03 01:41:54;;;;;;;41.30;25.00;;;;;;;7.68;68.15;97899.92;113890;1192;99022;-73
2021/11/03 01:44:22;;;;;;;45.50;28.00;;;;;;;7.69;68.24;97902.52;113872;1192;112664;-72
2021/11/03 01:46:56;;;;;;;48.20;28.10;;;;;;;7.69;68.30;97911.99;113474;1193;97187;-72
2021/11/03 01:49:30;;;;;;;50.10;30.40;;;;;;;7.71;68.04;97917.68;113442;1193;107469;-72
2021/11/03 01:52:10;;;;;;;51.80;31.10;;;;;;;7.72;68.20;97920.98;113221;1193;98879;-72
2021/11/03 01:54:44;;;;;;;52.60;30.90;;;;;;;7.74;68.31;97917.66;113356;1192;99798;-71
2021/11/03 01:57:20;;;;;;;52.80;31.20;;;;;;;7.76;68.27;97922.07;113472;1193;114029;-73
2021/11/03 02:00:05;;;;;;;51.80;29.90;;;;;;;7.77;68.28;97926.77;113337;1193;98835;-73
2021/11/03 02:02:34;;;;;;;54.00;31.50;;;;;;;7.79;68.42;97930.45;113526;1193;108471;-73
2021/11/03 02:05:10;;;;;;;53.50;30.30;;;;;;;7.80;68.43;97934.80;113432;1193;98969;-73
2021/11/03 02:07:42;;;;;;;48.00;29.70;;;;;;;7.81;68.36;97938.25;113479;1193;98963;-71
2021/11/03 02:10:14;;;;;;;51.10;31.30;;;;;;;7.83;68.50;97938.46;113502;1193;112515;-72
2021/11/03 02:12:43;;;;;;;51.80;32.30;;;;;;;7.83;68.39;97936.48;113457;1192;98992;-71
2021/11/03 02:15:15;;;;;;;48.80;29.80;;;;;;;7.85;68.41;97940.20;113441;1193;107511;-71
2021/11/03 02:17:45;;;;;;;49.40;29.90;;;;;;;7.85;68.60;97939.67;113442;1193;99607;-71
2021/11/03 02:20:19;;;;;;;49.40;29.50;;;;;;;7.87;68.51;97939.90;113457;1193;97402;-71
2021/11/03 02:23:06;;;;;;;;;;;;;;;7.90;68.49;97942.67;113517;1193;112740;-72
2021/11/03 02:26:15;;;;;;;49.10;27.60;;;;;;;7.89;68.44;97948.06;113401;1193;96273;-73
2021/11/03 02:28:48;;;;;;;46.80;27.60;;;;;;;7.89;68.55;97949.11;113325;1193;107522;-70
2021/11/03 02:31:42;;;;;;;46.40;27.20;;;;;;;7.90;68.52;97959.06;113373;1193;99128;-71
2021/11/03 02:34:18;;;;;;;43.80;25.70;;;;;;;7.91;68.54;97957.44;113510;1193;96444;-70
2021/11/03 02:37:02;;;;;;;42.60;26.20;;;;;;;7.92;68.56;97960.35;113440;1193;112519;-71
2021/11/03 02:39:45;;;;;;;40.40;23.70;;;;;;;7.94;68.49;97961.12;113459;1192;96318;-72
2021/11/03 02:42:15;;;;;;;39.60;23.00;;;;;;;7.94;68.52;97960.70;113407;1193;107581;-72
2021/11/03 02:44:46;;;;;;;38.40;22.90;;;;;;;7.95;68.53;97963.84;113488;1193;96360;-72
2021/11/03 02:47:15;;;;;;;34.80;20.60;;;;;;;7.96;68.56;97966.06;113548;1193;96834;-71
2021/11/03 02:49:43;;;;;;;37.60;21.20;;;;;;;7.96;68.59;97965.00;113547;1193;112557;-71
2021/11/03 02:52:21;;;;;;;34.20;21.40;;;;;;;7.97;68.60;97969.81;113561;1193;99017;-70
2021/11/03 02:54:50;;;;;;;35.80;20.00;;;;;;;7.97;68.63;97967.84;113515;1192;107523;-72
2021/11/03 02:57:19;;;;;;;34.00;19.70;;;;;;;7.98;68.74;97964.81;113886;1193;98918;-72
2021/11/03 02:59:51;;;;;;;34.50;19.70;;;;;;;7.99;68.49;97963.85;113910;1192;98919;-72
2021/11/03 03:02:19;;;;;;;33.60;19.20;;;;;;;7.97;68.77;97968.42;114051;1193;112592;-70
2021/11/03 03:04:53;;;;;;;32.10;18.40;;;;;;;7.97;68.61;97972.16;113758;1192;98937;-70
2021/11/03 03:07:21;;;;;;;29.30;17.10;;;;;;;7.97;68.73;97974.45;113941;1192;107330;-70
2021/11/03 03:09:49;;;;;;;32.80;19.10;;;;;;;7.96;68.72;97982.45;113922;1193;99003;-69
2021/11/03 03:12:20;;;;;;;31.00;17.50;;;;;;;7.95;68.62;97986.24;113909;1192;98910;-69
2021/11/03 03:14:51;;;;;;;30.30;17.30;;;;;;;7.95;68.74;97990.14;113434;1193;112516;-71
2021/11/03 03:17:20;;;;;;;30.90;19.10;;;;;;;7.95;68.70;97993.63;113874;1193;98892;-70
2021/11/03 03:19:50;;;;;;;32.00;18.10;;;;;;;7.95;68.64;97996.14;113910;1177;107653;-72
2021/11/03 03:22:20;;;;;;;29.30;17.90;;;;;;;7.95;68.78;98000.69;113916;1192;98930;-73
2021/11/03 03:24:49;;;;;;;31.20;17.40;;;;;;;7.97;68.78;98009.04;113924;1192;99047;-72
2021/11/03 03:27:22;;;;;;;31.80;18.40;;;;;;;7.97;68.72;98011.29;113545;1193;113465;-73
2021/11/03 03:29:52;;;;;;;29.10;16.70;;;;;;;7.98;68.90;98014.63;113510;1192;96364;-74
2021/11/03 03:32:23;;;;;;;29.50;16.70;;;;;;;7.99;68.79;98015.92;113528;1193;107489;-74
2021/11/03 03:34:51;;;;;;;29.20;16.70;;;;;;;8.00;68.85;98016.23;113542;1193;98897;-72
2021/11/03 03:37:19;;;;;;;27.70;16.40;;;;;;;8.00;68.84;98019.02;113589;1193;98971;-74
2021/11/03 03:39:52;;;;;;;27.10;15.60;;;;;;;8.01;68.92;98016.47;113541;1193;112358;-73
2021/11/03 03:42:20;;;;;;;27.10;15.70;;;;;;;8.02;68.83;98017.66;113562;1193;98878;-72
2021/11/03 03:44:49;;;;;;;27.70;15.90;;;;;;;8.01;68.86;98018.92;113532;1192;107504;-73
2021/11/03 03:47:18;;;;;;;27.50;15.50;;;;;;;8.02;69.00;98017.30;113533;1193;99050;-72
2021/11/03 03:49:48;;;;;;;28.00;15.70;;;;;;;8.02;69.00;98018.70;113594;1193;98975;-74
2021/11/03 03:52:17;;;;;;;26.30;14.60;;;;;;;8.00;68.95;98020.05;113545;1193;112321;-71
2021/11/03 03:54:45;;;;;;;27.10;14.60;;;;;;;7.98;68.85;98019.95;113509;1193;98999;-72
2021/11/03 03:57:13;;;;;;;25.60;14.10;;;;;;;7.95;68.88;98021.86;113369;1193;107525;-73
2021/11/03 03:59:40;;;;;;;26.50;14.40;;;;;;;7.94;68.92;98025.13;113353;1193;98883;-72
2021/11/03 04:02:08;;;;;;;26.60;14.10;;;;;;;7.94;69.04;98024.29;113602;1193;99015;-72
2021/11/03 04:04:39;;;;;;;25.10;13.90;;;;;;;7.93;68.91;98022.74;113465;1192;113492;-72
2021/11/03 04:07:07;;;;;;;26.20;14.30;;;;;;;7.93;69.04;98021.18;113920;1192;98905;-70
2021/11/03 04:09:34;;;;;;;25.60;13.90;;;;;;;7.92;68.89;98026.88;113895;1193;106496;-72
2021/11/03 04:12:03;;;;;;;25.80;14.30;;;;;;;7.92;68.87;98032.88;113873;1192;96504;-71
2021/11/03 04:14:30;;;;;;;26.10;13.30;;;;;;;7.92;68.98;98038.76;113739;1193;96396;-70
2021/11/03 04:16:58;;;;;;;25.70;14.20;;;;;;;7.90;68.86;98039.74;113892;1192;111521;-71
2021/11/03 04:19:27;;;;;;;25.00;14.10;;;;;;;7.89;68.98;98042.27;113926;1192;96569;-69
2021/11/03 04:21:55;;;;;;;25.70;14.20;;;;;;;7.87;68.83;98044.23;113437;1193;107641;-70
2021/11/03 04:24:24;;;;;;;26.40;15.10;;;;;;;7.85;68.97;98046.83;113437;1193;97684;-71
2021/11/03 04:26:52;;;;;;;26.30;14.30;;;;;;;7.83;68.87;98053.85;113958;1192;99021;-70
2021/11/03 04:29:22;;;;;;;25.00;14.30;;;;;;;7.81;68.95;98054.02;113859;1193;112406;-70
2021/11/03 04:31:52;;;;;;;26.60;14.30;;;;;;;7.78;68.93;98055.88;113915;1192;96506;-71
2021/11/03 04:34:22;;;;;;;24.30;12.70;;;;;;;7.73;69.00;98061.89;113911;1192;107511;-71
2021/11/03 04:36:51;;;;;;;25.20;13.40;;;;;;;7.70;69.13;98062.35;113922;1192;98904;-71
2021/11/03 04:39:20;;;;;;;25.50;13.00;;;;;;;7.67;69.10;98063.61;113911;1192;99443;-70
2021/11/03 04:41:49;;;;;;;24.00;12.40;;;;;;;7.62;68.96;98063.05;113915;1193;113436;-71
2021/11/03 04:44:17;;;;;;;24.30;12.30;;;;;;;7.59;69.12;98068.20;113970;1192;97056;-69
2021/11/03 04:46:45;;;;;;;25.60;13.40;;;;;;;7.58;69.12;98073.26;113887;1192;108903;-70
2021/11/03 04:49:13;;;;;;;24.70;13.00;;;;;;;7.55;69.08;98074.37;113892;1192;99619;-69
2021/11/03 04:51:41;;;;;;;22.60;12.00;;;;;;;7.54;69.14;98078.84;113746;1192;98997;-70
2021/11/03 04:54:10;;;;;;;24.50;12.80;;;;;;;7.52;69.14;98085.20;113604;1193;112515;-69
2021/11/03 04:56:38;;;;;;;23.80;12.90;;;;;;;7.50;69.13;98085.33;113640;1193;98897;-69
2021/11/03 04:59:06;;;;;;;24.10;13.10;;;;;;;7.49;69.34;98087.56;113638;1192;107486;-68
2021/11/03 05:01:34;;;;;;;26.40;12.70;;;;;;;7.48;69.27;98093.41;113531;1193;99026;-70
2021/11/03 05:04:03;;;;;;;26.00;13.90;;;;;;;7.49;69.16;98098.69;115149;1192;96808;-70
2021/11/03 05:06:35;;;;;;;24.30;12.90;;;;;;;7.48;69.35;98098.39;114223;1193;112447;-69
2021/11/03 05:09:06;;;;;;;23.00;11.60;;;;;;;7.48;69.33;98096.77;113342;1193;97784;-69
2021/11/03 05:11:36;;;;;;;23.30;11.50;;;;;;;7.46;69.42;98099.40;113263;1193;107395;-70
2021/11/03 05:14:04;;;;;;;20.80;10.80;;;;;;;7.44;69.47;98103.39;113303;1193;98351;-70
2021/11/03 05:16:33;;;;;;;23.60;11.90;;;;;;;7.43;69.43;98109.14;113425;1193;98992;-70
2021/11/03 05:19:03;;;;;;;22.50;11.20;;;;;;;7.39;69.50;98111.52;113301;1193;112561;-70
2021/11/03 05:21:36;;;;;;;23.10;11.10;;;;;;;7.36;69.52;98109.45;113470;1192;97422;-70
2021/11/03 05:24:05;;;;;;;22.70;11.20;;;;;;;7.32;69.66;98112.05;113442;1193;107588;-69
2021/11/03 05:26:33;;;;;;;23.30;11.80;;;;;;;7.29;69.61;98115.80;113407;1193;98976;-67
2021/11/03 05:29:03;;;;;;;22.10;11.20;;;;;;;7.24;69.98;98119.31;113322;1193;99016;-68
2021/11/03 05:31:32;;;;;;;23.10;11.00;;;;;;;7.19;69.80;98121.98;113424;1193;112488;-71
2021/11/03 05:34:00;;;;;;;23.60;11.70;;;;;;;7.14;70.03;98121.84;113412;1193;98906;-70
2021/11/03 05:36:31;;;;;;;22.00;11.50;;;;;;;7.10;69.94;98123.59;113440;1193;107463;-71
2021/11/03 05:39:04;;;;;;;22.40;11.50;;;;;;;7.08;69.99;98122.27;113432;1192;98939;-71
2021/11/03 05:41:37;;;;;;;25.30;11.90;;;;;;;7.09;69.86;98125.77;113184;1193;97101;-71
2021/11/03 05:44:12;;;;;;;23.00;11.90;;;;;;;7.09;69.94;98137.00;113370;1193;112601;-70
2021/11/03 05:46:47;;;;;;;22.20;10.60;;;;;;;7.09;69.83;98139.33;113353;1192;99048;-70
2021/11/03 05:49:21;;;;;;;23.90;11.40;;;;;;;7.08;69.83;98141.13;113355;1193;107447;-70
2021/11/03 05:51:56;;;;;;;23.90;11.70;;;;;;;7.07;70.04;98149.01;113561;1192;98896;-71
2021/11/03 05:54:26;;;;;;;23.40;12.30;;;;;;;7.04;69.92;98146.02;113353;1193;99034;-70
2021/11/03 05:56:59;;;;;;;23.20;11.70;;;;;;;7.02;70.19;98153.42;113480;1192;113744;-70
2021/11/03 05:59:27;;;;;;;23.10;11.70;;;;;;;6.99;69.87;98159.20;113288;1193;98981;-71
2021/11/03 06:01:56;;;;;;;21.70;9.90;;;;;;;6.98;70.07;98160.55;113335;1192;107492;-71
2021/11/03 06:04:26;;;;;;;21.50;10.00;;;;;;;6.98;70.07;98164.27;113487;1193;98997;-71
2021/11/03 06:06:53;;;;;;;20.70;10.10;;;;;;;6.98;69.96;98167.60;113317;1193;99717;-69
2021/11/03 06:09:22;;;;;;;22.00;9.70;;;;;;;6.97;70.00;98168.04;113476;1192;113179;-69
2021/11/03 06:11:50;;;;;;;23.70;11.30;;;;;;;6.95;70.05;98166.55;113813;1193;98984;-69
2021/11/03 06:14:18;;;;;;;20.70;9.80;;;;;;;6.95;70.02;98170.86;113791;1193;108126;-70
2021/11/03 06:16:46;;;;;;;21.50;10.60;;;;;;;6.93;70.04;98167.21;113351;1193;98990;-70
2021/11/03 06:19:14;;;;;;;21.10;10.30;;;;;;;6.93;70.31;98171.52;113350;1193;99008;-70
2021/11/03 06:21:42;;;;;;;21.10;9.80;;;;;;;6.92;70.17;98178.77;113396;1193;112639;-70
2021/11/03 06:24:10;;;;;;;22.40;10.80;;;;;;;6.92;70.33;98185.27;113357;1193;98981;-71
2021/11/03 06:26:38;;;;;;;21.40;10.20;;;;;;;6.89;70.45;98194.88;113358;1193;107166;-71
2021/11/03 06:29:08;;;;;;;23.00;10.80;;;;;;;6.87;70.29;98197.64;113364;1193;99072;-69
2021/11/03 06:31:37;;;;;;;23.50;11.30;;;;;;;6.87;70.42;98199.06;113472;1193;96310;-69
2021/11/03 06:34:07;;;;;;;22.70;11.30;;;;;;;6.89;70.45;98203.20;113533;1192;111263;-70
2021/11/03 06:36:37;;;;;;;23.60;11.30;;;;;;;6.88;70.62;98207.43;113446;1193;98950;-69
2021/11/03 06:39:08;;;;;;;21.30;10.30;;;;;;;6.88;70.45;98212.22;113511;1193;107390;-70
2021/11/03 06:41:39;;;;;;;22.00;10.90;;;;;;;6.88;70.55;98218.52;113480;1192;98935;-70
2021/11/03 06:44:07;;;;;;;24.20;11.50;;;;;;;6.89;70.66;98224.33;113503;1192;96371;-69
2021/11/03 06:46:37;;;;;;;22.80;11.40;;;;;;;6.90;70.49;98224.39;113505;1192;112582;-69
2021/11/03 06:49:07;;;;;;;22.10;10.80;;;;;;;6.92;70.55;98221.24;113357;1193;97762;-68
2021/11/03 06:51:36;;;;;;;24.40;11.90;;;;;;;6.95;70.67;98224.39;113393;1193;107488;-70
2021/11/03 06:54:04;;;;;;;23.90;12.00;;;;;;;6.98;70.57;98229.67;113643;1192;98985;-71
2021/11/03 06:56:33;;;;;;;23.50;11.50;;;;;;;7.02;70.67;98230.99;113459;1192;98989;-72
2021/11/03 06:59:04;;;;;;;25.60;12.20;;;;;;;7.04;70.77;98235.03;113461;1193;113517;-71
2021/11/03 07:01:32;;;;;;;28.40;12.40;;;;;;;7.07;70.67;98236.76;113424;1192;98979;-70
2021/11/03 07:04:04;;;;;;;24.90;12.40;;;;;;;7.10;70.97;98235.51;113302;1193;107523;-69
2021/11/03 07:06:32;;;;;;;25.40;12.30;;;;;;;7.13;70.84;98234.05;113429;1193;96454;-68
2021/11/03 07:09:00;;;;;;;24.40;12.60;;;;;;;7.17;70.83;98235.73;113364;1193;98922;-70
2021/11/03 07:11:28;;;;;;;25.60;12.90;;;;;;;7.21;70.87;98241.29;113309;1193;112475;-70
2021/11/03 07:13:57;;;;;;;25.10;12.40;;;;;;;7.23;70.89;98245.70;113323;1193;98912;-71
2021/11/03 07:16:27;;;;;;;25.50;12.60;;;;;;;7.26;70.96;98242.64;113427;1193;107516;-69
2021/11/03 07:18:55;;;;;;;23.80;11.90;;;;;;;7.29;70.88;98245.09;113599;1193;99011;-71
2021/11/03 07:21:24;;;;;;;24.90;12.80;;;;;;;7.34;70.90;98243.14;113541;1193;97092;-69
2021/11/03 07:23:51;;;;;;;22.70;11.70;;;;;;;7.39;71.03;98246.29;113866;1192;112738;-69
2021/11/03 07:26:20;;;;;;;25.70;13.30;;;;;;;7.43;71.14;98244.95;113875;1192;99092;-70
2021/11/03 07:28:49;;;;;;;25.20;12.10;;;;;;;7.46;71.18;98244.05;113473;1193;107529;-72
2021/11/03 07:31:18;;;;;;;24.40;12.70;;;;;;;7.48;71.06;98244.06;113445;1193;99906;-69
2021/11/03 07:33:46;;;;;;;24.80;11.90;;;;;;;7.52;71.44;98243.63;113448;1193;98235;-70
2021/11/03 07:36:20;;;;;;;23.80;12.30;;;;;;;7.52;71.67;98245.36;113931;1192;112869;-69
2021/11/03 07:38:51;;;;;;;24.80;12.40;;;;;;;7.51;71.55;98251.95;113332;1193;98969;-71
2021/11/03 07:41:34;;;;;;;25.40;12.70;;;;;;;7.49;71.72;98253.16;113732;1192;107647;-70
2021/11/03 07:44:06;;;;;;;23.70;11.70;;;;;;;7.52;71.62;98256.30;113301;1193;98965;-70
2021/11/03 07:46:35;;;;;;;26.60;12.80;;;;;;;7.58;71.67;98263.45;113601;1192;96380;-69
2021/11/03 07:49:04;;;;;;;23.80;12.00;;;;;;;7.60;71.66;98265.23;114742;1185;112532;-71
2021/11/03 07:51:33;;;;;;;25.00;12.20;;;;;;;7.64;71.62;98268.66;113344;1192;98965;-69
2021/11/03 07:54:01;;;;;;;25.20;12.80;;;;;;;7.72;71.79;98270.70;113431;1192;107890;-70
2021/11/03 07:56:37;;;;;;;26.50;12.50;;;;;;;7.78;71.57;98276.98;113430;1192;96383;-70
2021/11/03 07:59:07;;;;;;;24.10;12.10;;;;;;;7.81;71.54;98273.43;113337;1192;98875;-69
2021/11/03 08:01:35;;;;;;;25.10;11.90;;;;;;;7.85;71.53;98275.07;113333;1193;112976;-69
2021/11/03 08:04:08;;;;;;;23.50;11.20;;;;;;;7.88;71.47;98282.02;113275;1192;98978;-70
2021/11/03 08:06:39;;;;;;;26.20;12.70;;;;;;;7.94;71.56;98281.51;113666;1193;107596;-70
2021/11/03 08:09:07;;;;;;;24.10;11.80;;;;;;;7.98;71.50;98285.06;114563;1192;98494;-70
2021/11/03 08:12:02;;;;;;;23.90;12.00;;;;;;;8.03;71.61;98289.23;113290;1192;96347;-68
2021/11/03 08:14:31;;;;;;;24.20;11.90;;;;;;;8.11;71.59;98296.67;113551;1192;112715;-70
2021/11/03 08:17:02;;;;;;;24.50;12.40;;;;;;;8.17;71.50;98297.08;114401;1192;99061;-72
2021/11/03 08:19:49;;;;;;;25.90;12.60;;;;;;;8.25;71.40;98299.32;113133;1192;108043;-72
2021/11/03 08:22:21;;;;;;;25.00;12.30;;;;;;;8.37;71.38;98296.84;113570;1192;98923;-70
2021/11/03 08:24:51;;;;;;;26.50;13.40;;;;;;;8.46;71.45;98303.73;113662;1192;98897;-71
2021/11/03 08:27:22;;;;;;;28.20;13.70;;;;;;;8.59;71.23;98305.42;113833;1192;112983;-68
2021/11/03 08:29:52;;;;;;;26.80;12.80;;;;;;;8.73;71.25;98304.04;113458;1192;99007;-70
2021/11/03 08:32:26;;;;;;;25.70;13.20;;;;;;;8.85;71.15;98303.95;113145;1192;107539;-69
2021/11/03 08:34:56;;;;;;;25.00;12.00;;;;;;;9.03;71.07;98306.30;113665;1192;99004;-71
2021/11/03 08:37:33;;;;;;;26.30;13.50;;;;;;;9.29;71.06;98305.45;113614;1192;98872;-72
2021/11/03 08:40:07;;;;;;;26.90;13.10;;;;;;;9.53;70.71;98309.96;114115;1192;112116;-73
2021/11/03 08:42:37;;;;;;;26.30;12.60;;;;;;;9.75;70.41;98309.95;113356;1193;98912;-72
2021/11/03 08:45:08;;;;;;;27.20;12.10;;;;;;;9.99;70.35;98314.61;113838;1192;107459;-72
2021/11/03 08:47:38;;;;;;;24.50;12.00;;;;;;;10.25;70.16;98317.27;113733;1193;98919;-72
2021/11/03 08:50:11;;;;;;;24.40;11.70;;;;;;;10.52;70.23;98320.16;113625;1193;98973;-73
2021/11/03 08:52:41;;;;;;;23.60;11.00;;;;;;;10.95;69.84;98318.27;113674;1193;112332;-72
2021/11/03 08:55:11;;;;;;;22.50;11.10;;;;;;;11.22;69.43;98320.08;113487;1193;98997;-73
2021/11/03 08:57:41;;;;;;;27.00;12.10;;;;;;;11.40;69.15;98321.88;113565;1192;106975;-74
2021/11/03 09:00:14;;;;;;;23.30;10.60;;;;;;;11.65;69.29;98321.08;113501;1186;99124;-73
2021/11/03 09:02:50;;;;;;;23.30;11.60;;;;;;;12.05;69.28;98325.92;113378;1193;99367;-74
2021/11/03 09:05:19;;;;;;;21.00;9.90;;;;;;;12.48;68.22;98326.45;113285;1192;111613;-73
2021/11/03 09:07:46;;;;;;;21.80;10.80;;;;;;;12.86;68.19;98326.15;113287;1192;97773;-73
2021/11/03 09:10:18;;;;;;;23.50;11.20;;;;;;;13.23;66.85;98330.87;113303;1193;107504;-73
2021/11/03 09:12:51;;;;;;;22.30;10.50;;;;;;;13.53;66.29;98335.84;113416;1193;99648;-73
2021/11/03 09:15:20;;;;;;;20.00;10.10;;;;;;;13.74;65.83;98341.33;113423;1193;98939;-73
2021/11/03 09:17:56;;;;;;;22.40;10.10;;;;;;;13.93;66.11;98342.67;113365;1193;112516;-73
2021/11/03 09:20:25;;;;;;;20.20;10.40;;;;;;;14.09;66.27;98347.55;113534;1193;96318;-73
2021/11/03 09:22:56;;;;;;;20.70;10.50;;;;;;;13.92;63.11;98347.58;113482;1192;109012;-73
2021/11/03 09:25:23;;;;;;;22.10;10.30;;;;;;;13.46;63.25;98350.09;113523;1192;97766;-72
2021/11/03 09:27:52;;;;;;;19.50;10.20;;;;;;;13.19;62.60;98346.73;113260;1193;99081;-73
2021/11/03 09:30:24;;;;;;;20.30;10.00;;;;;;;13.02;62.78;98352.80;113207;1193;111528;-73
2021/11/03 09:32:57;;;;;;;19.50;9.50;;;;;;;12.92;62.60;98353.67;113355;1193;98860;-72
2021/11/03 09:35:30;;;;;;;20.10;9.90;;;;;;;12.90;63.42;98353.88;113478;1193;106591;-73
2021/11/03 09:38:00;;;;;;;18.50;8.60;;;;;;;12.99;62.98;98354.66;113223;1192;98729;-73
2021/11/03 09:40:35;;;;;;;18.60;9.20;;;;;;;13.04;63.32;98354.55;113273;1193;98914;-74
2021/11/03 09:43:17;;;;;;;19.30;9.10;;;;;;;13.15;63.15;98358.50;113096;1193;112562;-75
2021/11/03 09:45:45;;;;;;;19.90;9.30;;;;;;;13.22;62.52;98365.16;113313;1193;98950;-73
2021/11/03 09:48:34;;;;;;;18.30;8.70;;;;;;;13.10;61.20;98364.27;113371;1193;106755;-73
2021/11/03 09:51:15;;;;;;;16.30;8.10;;;;;;;12.86;61.02;98361.58;113393;1192;99012;-74
2021/11/03 09:53:50;;;;;;;19.50;8.00;;;;;;;12.73;60.26;98353.02;113397;1192;99012;-71
2021/11/03 09:56:34;;;;;;;18.20;7.60;;;;;;;12.54;60.21;98356.38;113394;1192;112972;-73
2021/11/03 09:59:16;;;;;;;21.60;8.60;;;;;;;12.44;60.63;98358.42;113300;1193;99020;-73
2021/11/03 10:01:55;;;;;;;18.10;8.50;;;;;;;12.53;60.85;98357.36;113413;1192;107105;-72
2021/11/03 10:04:28;;;;;;;19.40;8.50;;;;;;;12.65;61.05;98354.39;113508;1192;97610;-74
2021/11/03 10:07:26;;;;;;;18.00;8.20;;;;;;;12.73;60.86;98354.08;113659;1192;97097;-74
2021/11/03 10:09:54;;;;;;;19.10;7.70;;;;;;;12.67;59.67;98359.73;113655;1192;112479;-73
2021/11/03 10:12:25;;;;;;;18.40;8.20;;;;;;;12.51;59.22;98358.20;113682;1193;98971;-71
2021/11/03 10:14:57;;;;;;;16.70;8.00;;;;;;;12.41;59.73;98360.52;113626;1193;107508;-74
2021/11/03 10:17:30;;;;;;;17.30;8.00;;;;;;;12.45;59.56;98356.59;113605;1192;98904;-73
2021/11/03 10:20:16;;;;;;;20.60;8.30;;;;;;;12.41;59.07;98359.08;113629;1192;99060;-73
2021/11/03 10:22:44;;;;;;;22.50;9.80;;;;;;;12.38;59.02;98360.80;113658;1192;112863;-73
2021/11/03 10:25:17;;;;;;;22.70;10.30;;;;;;;12.41;59.29;98367.11;113614;1192;98971;-73
2021/11/03 10:27:49;;;;;;;;;;;;;;;12.41;58.66;98366.38;113623;1192;107532;-73
2021/11/03 10:30:50;;;;;;;24.80;11.70;;;;;;;12.31;58.81;98366.38;113523;1193;98974;-72
2021/11/03 10:33:57;;;;;;;23.40;10.80;;;;;;;12.37;58.45;98367.00;113669;1192;98874;-73
2021/11/03 10:36:36;;;;;;;22.20;10.50;;;;;;;12.29;58.40;98369.27;113603;1192;111558;-73
2021/11/03 10:39:19;;;;;;;20.00;9.40;;;;;;;12.17;57.95;98369.66;113642;1193;99345;-70
2021/11/03 10:42:23;;;;;;;22.80;10.40;;;;;;;12.04;57.84;98372.52;113455;1192;107473;-73
2021/11/03 10:45:12;;;;;;;21.80;9.80;;;;;;;11.88;57.89;98378.08;113217;1192;99485;-73
2021/11/03 10:47:39;;;;;;;18.80;9.20;;;;;;;11.89;58.17;98376.37;113688;1193;98966;-73
2021/11/03 10:50:30;;;;;;;19.10;8.70;;;;;;;11.95;58.31;98368.76;114061;1192;112442;-73
2021/11/03 10:53:14;;;;;;;20.20;9.20;;;;;;;12.05;58.25;98366.97;113533;1192;97087;-72
2021/11/03 10:55:45;;;;;;;18.70;8.90;;;;;;;12.18;58.52;98364.08;113626;1193;107611;-71
2021/11/03 10:58:13;;;;;;;20.60;9.30;;;;;;;12.40;58.68;98364.02;113658;1192;97084;-72
2021/11/03 11:00:57;;;;;;;21.50;9.60;;;;;;;12.52;58.30;98367.86;113490;1192;96392;-72
2021/11/03 11:03:31;;;;;;;23.80;10.40;;;;;;;12.54;57.76;98364.52;113532;1193;112514;-72
2021/11/03 11:06:13;;;;;;;20.50;9.60;;;;;;;12.55;58.04;98366.73;113174;1193;99029;-72
2021/11/03 11:08:52;;;;;;;;;;;;;;;12.59;57.39;98370.66;113271;1192;107932;-72
2021/11/03 11:11:29;;;;;;;20.00;9.40;;;;;;;12.42;57.23;98364.02;113204;1193;97431;-73
2021/11/03 11:14:24;;;;;;;19.70;9.50;;;;;;;12.36;57.37;98362.37;113241;1193;98906;-72
2021/11/03 11:17:03;;;;;;;21.90;10.20;;;;;;;12.42;57.55;98359.23;113145;1193;111692;-72
2021/11/03 11:19:41;;;;;;;22.50;10.40;;;;;;;12.47;57.21;98358.59;113277;1193;98945;-73
2021/11/03 11:23:03;;;;;;;20.40;9.10;;;;;;;12.52;57.47;98362.89;113352;1193;107490;-74
2021/11/03 11:25:51;;;;;;;26.10;11.20;;;;;;;12.53;57.04;98357.67;112547;1198;99022;-74
2021/11/03 11:28:45;;;;;;;24.80;11.30;;;;;;;12.52;57.22;98356.69;113314;1192;98877;-72
2021/11/03 11:31:23;;;;;;;20.00;9.60;;;;;;;12.59;57.22;98358.34;113423;1192;112538;-72
2021/11/03 11:34:17;;;;;;;20.30;9.30;;;;;;;12.68;57.48;98357.20;113333;1193;97444;-74
2021/11/03 11:36:57;;;;;;;21.60;9.60;;;;;;;12.86;57.14;98356.44;113371;1192;106540;-71